Ride Results

Murrumba (11-08-2018)
Ride distance: 83.0 km

Outcomes - Murrumba (11-08-2018)
Division No. of Entries Retired / DNE Completed Withdrawn Ineligible V/O Percentage Completed
HW 4 - 3 - - 1 75.00%
MW 16 - 15 - - 1 93.75%
LW 16 - 14 1 - 1 87.50%
JN 7 - 4 1 - 2 57.14%
Totals 43 - 36 2 - 5 83.72%
Results - Murrumba (11-08-2018)
No. Rider Horse Place Time Leg Speeds Total
Km/Hr
H/R bpm
Heavyweight
14 Peter Casey Rodborough Amaaya 1 6:23:00 13.6, 12.3 13.00 34, 38, 43 (Avg:40)
36 Luke Annetts Churinga Firestorm 2 7:18:00 12.2, 10.5 11.37 40, 51, 55 (Avg:53)
46 Jago Blonde Kynnum Park Jai 3 8:06:00 12.1, 8.6 10.25 37, 43, 49 (Avg:46)
21 Angela Waldock Indiana Seabreeze Lame L1 0:00:00 15.6 - 36, 42 (Avg:42)
Middleweight
1 Akhmed Pshunov Glenewan Whisper 1 (BC) 4:48:00 16.7, 17.9 17.29 33, 46, 48 (Avg:47)
13 Jan Rohweder Woongarra Warrior 1 4:48:00 16.9, 17.6 17.29 43, 44, 48 (Avg:46)
24 Fiona Fenech Aqaba Bronson 3 5:04:00 16.7, 15.9 16.38 35, 47, 48 (Avg:47)
22 Debbie Forsdike Riverfire 4 5:46:00 15.6, 13.1 14.39 34, 31, 55 (Avg:43)
15 Zachary Casey Azale Al Zameel 5 6:23:00 13.6, 12.3 13.00 29, 34, 47 (Avg:40)
31 Corey Nix Homeleigh Mountain Kosmo 6 6:51:00 12.4, 11.7 12.12 26, 39, 48 (Avg:43)
35 Jennifer Annetts Mimosa Ellira 7 7:12:00 12.2, 10.8 11.53 34, 38, 36 (Avg:37)
26 Renae Kuhn East-Lynne Sahashi 8 7:41:00 12.6, 9.1 10.80 35, 52, 48 (Avg:50)
43 Lexi Morton Arny's Bad Moon Arisin 9 8:04:00 11.6, 9.0 10.29 38, 49, 49 (Avg:49)
17 Jo Hamilton-Branigan Kholonial Boadecia 10 8:09:00 11.0, 9.3 10.18 32, 43, 40 (Avg:41)
11 Kaylyn Free Blue Beatson 11 8:30:00 10.5, 9.0 9.76 29, 41, 44 (Avg:42)
10 Liz Kirk Drumlin Moonstrike 11 8:30:00 10.5, 9.0 9.76 31, 36, 41 (Avg:38)
12 Lorraine Ternouth Dunwingeri Zaza 11 8:30:00 10.5, 8.9 9.76 30, 40, 48 (Avg:44)
38 Jess Dakin Boonara Barbados 14 8:34:00 10.3, 9.0 9.69 30, 38, 46 (Avg:42)
37 Bec Miller Splendacrest Quidam 14 8:34:00 10.3, 9.0 9.69 32, 40, 50 (Avg:45)
9 David Urquhart Bangalow Park Coopers Lad Lame L2 0:00:00 13.7, 14.3 - 39, 47, 59 (Avg:53)
Lightweight
23 Sarah Huddleston Performance Park Captain Jack 1 (BC) 5:04:00 16.7, 15.9 16.38 27, 39, 41 (Avg:40)
28 Jan Tyrrell Steel Poppy Bayeux 2 5:45:00 16.2, 12.7 14.43 33, 45, 46 (Avg:45)
40 Victoria Clarke Maloo Vale Amir Halo 3 6:05:00 15.4, 11.9 13.64 29, 43, 50 (Avg:46)
39 Natasha Bryman Heathfield's Bonnie 4 6:17:00 13.8, 12.5 13.21 34, 40, 44 (Avg:42)
7 Shelley Chapman Cameo Bizmarck 5 6:28:00 12.6, 13.1 12.84 33, 44, 49 (Avg:46)
4 Essy Mountford Shardell Indianna 6 6:35:00 12.6, 12.5 12.61 33, 41, 46 (Avg:43)
2 Candice Gurtner Cedarton Achak Abornazine 7 6:55:00 12.1, 11.8 12.00 32, 44, 57 (Avg:50)
27 Kate Appleby Steel Poppy Zen 8 7:17:00 12.2, 10.5 11.40 34, 42, 44 (Avg:43)
6 Kaylea Maher Awarran Park Rose Majesty 9 7:43:00 10.9, 10.5 10.76 42, 40, 46 (Avg:43)
5 Jorja McInnes Judstan Reynbeau 9 7:43:00 10.9, 10.5 10.76 35, 43, 52 (Avg:47)
45 Adriana Sardoni Willowvale Sirahh 11 8:04:00 11.6, 9.0 10.29 32, 48, 47 (Avg:47)
16 Carla Jones Kholonial Bartholomew 12 8:09:00 11.0, 9.3 10.18 35, 44, 48 (Avg:46)
34 Brittney McInnes Zenith Park Qadir 13 8:40:00 9.8, 9.2 9.58 33, 42, 46 (Avg:44)
33 Amanda Powell Jezabelle Jesse James 13 8:40:00 9.8, 9.2 9.58 32, 39, 50 (Avg:44)
20 Jenny Thompson Shamira Lame L1 0:00:00 16.1 - 36, 43 (Avg:43)
19 Robyn Brazel Ramadan Arabian Cricket Widthdrawn P/R 0:00:00 - - 37
Junior
42 Jasmine Perrier Ardair Skoda 1 (BC) 6:05:00 15.4, 11.9 13.64 35, 47, 59 (Avg:53)
32 Talyn Nix Homeleigh Mountain Khalid's Komet 2 6:51:00 12.4, 11.7 12.12 29, 40, 44 (Avg:42)
3 Ben Hoey Saharan Moon River 3 6:52:00 11.8, 12.3 12.09 37, 42, 54 (Avg:48)
44 Georgia Morton Mt Eerwah Silver Mariner 4 8:04:00 11.6, 9.0 10.29 32, 40, 43 (Avg:41)
18 Georgie Barber Shanti Metabolics moderate L1 0:00:00 15.6 - 34, 52, 48 (Avg:50)
25 Scarlet McQueen Elfar Kaspa Lame L1 0:00:00 14.5 - 36, 46 (Avg:46)
8 Maeve Paten Danic Park Antebellum Widthdrawn L1 0:00:00 - - 31, 40 (Avg:40)